sensor_id;sensor_type;location;lat;lon;timestamp;temperature;humidity
13231;DHT22;6681;53.254;10.398;2023-12-28T00:00:26;7.10;99.90
13231;DHT22;6681;53.254;10.398;2023-12-28T00:02:52;7.10;99.90
13231;DHT22;6681;53.254;10.398;2023-12-28T00:05:18;7.00;99.90
13231;DHT22;6681;53.254;10.398;2023-12-28T00:07:43;7.00;99.90
13231;DHT22;6681;53.254;10.398;2023-12-28T00:10:09;7.10;99.90
13231;DHT22;6681;53.254;10.398;2023-12-28T00:12:35;7.10;99.90
13231;DHT22;6681;53.254;10.398;2023-12-28T00:15:01;7.40;99.90
13231;DHT22;6681;53.254;10.398;2023-12-28T00:17:26;7.10;99.90
13231;DHT22;6681;53.254;10.398;2023-12-28T00:19:52;7.10;99.90
13231;DHT22;6681;53.254;10.398;2023-12-28T00:22:17;7.30;99.90
13231;DHT22;6681;53.254;10.398;2023-12-28T00:24:47;7.90;99.90
13231;DHT22;6681;53.254;10.398;2023-12-28T00:27:12;7.20;99.90
13231;DHT22;6681;53.254;10.398;2023-12-28T00:29:38;7.20;99.90
13231;DHT22;6681;53.254;10.398;2023-12-28T00:32:07;7.20;99.90
13231;DHT22;6681;53.254;10.398;2023-12-28T00:34:33;7.30;99.90
13231;DHT22;6681;53.254;10.398;2023-12-28T00:36:59;7.30;99.90
13231;DHT22;6681;53.254;10.398;2023-12-28T00:39:24;7.30;99.90
13231;DHT22;6681;53.254;10.398;2023-12-28T00:41:50;7.30;99.90
13231;DHT22;6681;53.254;10.398;2023-12-28T00:44:15;7.30;99.90
13231;DHT22;6681;53.254;10.398;2023-12-28T00:46:41;7.60;99.90
13231;DHT22;6681;53.254;10.398;2023-12-28T00:49:07;7.30;99.90
13231;DHT22;6681;53.254;10.398;2023-12-28T00:51:33;8.20;99.90
13231;DHT22;6681;53.254;10.398;2023-12-28T00:53:59;7.40;99.90
13231;DHT22;6681;53.254;10.398;2023-12-28T00:56:24;7.40;99.90
13231;DHT22;6681;53.254;10.398;2023-12-28T00:58:50;7.90;99.90
13231;DHT22;6681;53.254;10.398;2023-12-28T01:01:16;7.40;99.90
13231;DHT22;6681;53.254;10.398;2023-12-28T01:03:41;7.40;99.90
13231;DHT22;6681;53.254;10.398;2023-12-28T01:06:07;7.80;99.90
13231;DHT22;6681;53.254;10.398;2023-12-28T01:08:33;7.70;99.90
13231;DHT22;6681;53.254;10.398;2023-12-28T01:11:01;7.30;99.90
13231;DHT22;6681;53.254;10.398;2023-12-28T01:13:28;7.60;99.90
13231;DHT22;6681;53.254;10.398;2023-12-28T01:15:54;7.30;99.90
13231;DHT22;6681;53.254;10.398;2023-12-28T01:18:19;7.20;99.90
13231;DHT22;6681;53.254;10.398;2023-12-28T01:20:45;7.20;99.90
13231;DHT22;6681;53.254;10.398;2023-12-28T01:23:11;7.20;99.90
13231;DHT22;6681;53.254;10.398;2023-12-28T01:25:37;7.20;99.90
13231;DHT22;6681;53.254;10.398;2023-12-28T01:28:03;7.20;99.90
13231;DHT22;6681;53.254;10.398;2023-12-28T01:30:28;7.20;99.90
13231;DHT22;6681;53.254;10.398;2023-12-28T01:32:54;7.20;99.90
13231;DHT22;6681;53.254;10.398;2023-12-28T01:35:20;7.50;99.90
13231;DHT22;6681;53.254;10.398;2023-12-28T01:37:45;7.20;99.90
13231;DHT22;6681;53.254;10.398;2023-12-28T01:40:11;7.20;99.90
13231;DHT22;6681;53.254;10.398;2023-12-28T01:42:37;7.20;99.90
13231;DHT22;6681;53.254;10.398;2023-12-28T01:45:03;7.20;99.90
13231;DHT22;6681;53.254;10.398;2023-12-28T01:47:30;7.20;99.90
13231;DHT22;6681;53.254;10.398;2023-12-28T01:49:59;7.60;99.90
13231;DHT22;6681;53.254;10.398;2023-12-28T01:52:26;7.50;99.90
13231;DHT22;6681;53.254;10.398;2023-12-28T01:54:52;7.20;99.90
13231;DHT22;6681;53.254;10.398;2023-12-28T01:57:18;7.60;99.90
13231;DHT22;6681;53.254;10.398;2023-12-28T01:59:44;7.40;99.90
13231;DHT22;6681;53.254;10.398;2023-12-28T02:02:10;7.20;99.90
13231;DHT22;6681;53.254;10.398;2023-12-28T02:04:36;7.20;99.90
13231;DHT22;6681;53.254;10.398;2023-12-28T02:07:01;7.20;99.90
13231;DHT22;6681;53.254;10.398;2023-12-28T02:09:27;7.20;99.90
13231;DHT22;6681;53.254;10.398;2023-12-28T02:11:53;7.20;99.90
13231;DHT22;6681;53.254;10.398;2023-12-28T02:14:20;7.90;99.90
13231;DHT22;6681;53.254;10.398;2023-12-28T02:16:51;7.30;99.90
13231;DHT22;6681;53.254;10.398;2023-12-28T02:19:32;8.20;99.90
13231;DHT22;6681;53.254;10.398;2023-12-28T02:22:04;7.30;99.90
13231;DHT22;6681;53.254;10.398;2023-12-28T02:24:30;7.40;99.90
13231;DHT22;6681;53.254;10.398;2023-12-28T02:26:56;7.40;99.90
13231;DHT22;6681;53.254;10.398;2023-12-28T02:29:21;7.40;99.90
13231;DHT22;6681;53.254;10.398;2023-12-28T02:31:53;7.40;99.90
13231;DHT22;6681;53.254;10.398;2023-12-28T02:34:29;7.40;99.90
13231;DHT22;6681;53.254;10.398;2023-12-28T02:36:56;8.40;99.90
13231;DHT22;6681;53.254;10.398;2023-12-28T02:39:22;7.50;99.90
13231;DHT22;6681;53.254;10.398;2023-12-28T02:41:49;7.50;99.90
13231;DHT22;6681;53.254;10.398;2023-12-28T02:44:14;7.50;99.90
13231;DHT22;6681;53.254;10.398;2023-12-28T02:46:40;7.80;99.90
13231;DHT22;6681;53.254;10.398;2023-12-28T02:49:06;7.60;99.90
13231;DHT22;6681;53.254;10.398;2023-12-28T02:51:32;7.90;99.90
13231;DHT22;6681;53.254;10.398;2023-12-28T02:53:57;7.60;99.90
13231;DHT22;6681;53.254;10.398;2023-12-28T02:56:23;7.90;99.90
13231;DHT22;6681;53.254;10.398;2023-12-28T02:58:49;7.70;99.90
13231;DHT22;6681;53.254;10.398;2023-12-28T03:01:14;7.70;99.90
13231;DHT22;6681;53.254;10.398;2023-12-28T03:03:40;7.80;99.90
13231;DHT22;6681;53.254;10.398;2023-12-28T03:06:05;7.70;99.90
13231;DHT22;6681;53.254;10.398;2023-12-28T03:08:31;7.70;99.90
13231;DHT22;6681;53.254;10.398;2023-12-28T03:10:56;7.90;99.90
13231;DHT22;6681;53.254;10.398;2023-12-28T03:13:22;7.80;99.90
13231;DHT22;6681;53.254;10.398;2023-12-28T03:15:48;7.80;99.90
13231;DHT22;6681;53.254;10.398;2023-12-28T03:18:13;7.80;99.90
13231;DHT22;6681;53.254;10.398;2023-12-28T03:20:39;7.80;99.90
13231;DHT22;6681;53.254;10.398;2023-12-28T03:23:05;7.80;99.90
13231;DHT22;6681;53.254;10.398;2023-12-28T03:25:31;7.80;99.90
13231;DHT22;6681;53.254;10.398;2023-12-28T03:27:56;7.90;99.90
13231;DHT22;6681;53.254;10.398;2023-12-28T03:30:22;8.30;99.90
13231;DHT22;6681;53.254;10.398;2023-12-28T03:32:47;7.90;99.90
13231;DHT22;6681;53.254;10.398;2023-12-28T03:35:13;7.90;99.90
13231;DHT22;6681;53.254;10.398;2023-12-28T03:37:38;7.90;99.90
13231;DHT22;6681;53.254;10.398;2023-12-28T03:40:05;7.90;99.90
13231;DHT22;6681;53.254;10.398;2023-12-28T03:42:30;7.90;99.90
13231;DHT22;6681;53.254;10.398;2023-12-28T03:44:56;7.90;99.90
13231;DHT22;6681;53.254;10.398;2023-12-28T03:47:22;7.90;99.90
13231;DHT22;6681;53.254;10.398;2023-12-28T03:49:49;9.00;99.90
13231;DHT22;6681;53.254;10.398;2023-12-28T03:52:15;8.00;99.90
13231;DHT22;6681;53.254;10.398;2023-12-28T03:54:40;7.90;99.90
13231;DHT22;6681;53.254;10.398;2023-12-28T03:57:06;7.90;99.90
13231;DHT22;6681;53.254;10.398;2023-12-28T03:59:32;8.00;99.90
13231;DHT22;6681;53.254;10.398;2023-12-28T04:01:57;7.90;99.90
13231;DHT22;6681;53.254;10.398;2023-12-28T04:04:23;7.90;99.90
13231;DHT22;6681;53.254;10.398;2023-12-28T04:06:48;7.90;99.90
13231;DHT22;6681;53.254;10.398;2023-12-28T04:09:14;8.30;99.90
13231;DHT22;6681;53.254;10.398;2023-12-28T04:11:40;8.00;99.90
13231;DHT22;6681;53.254;10.398;2023-12-28T04:14:05;8.70;99.90
13231;DHT22;6681;53.254;10.398;2023-12-28T04:16:31;8.10;99.90
13231;DHT22;6681;53.254;10.398;2023-12-28T04:18:57;8.30;99.90
13231;DHT22;6681;53.254;10.398;2023-12-28T04:21:22;7.90;99.90
13231;DHT22;6681;53.254;10.398;2023-12-28T04:23:48;8.00;99.90
13231;DHT22;6681;53.254;10.398;2023-12-28T04:26:14;7.90;99.90
13231;DHT22;6681;53.254;10.398;2023-12-28T04:28:39;7.90;99.90
13231;DHT22;6681;53.254;10.398;2023-12-28T04:31:06;8.20;99.90
13231;DHT22;6681;53.254;10.398;2023-12-28T04:33:32;7.90;99.90
13231;DHT22;6681;53.254;10.398;2023-12-28T04:36:01;7.90;99.90
13231;DHT22;6681;53.254;10.398;2023-12-28T04:38:28;7.90;99.90
13231;DHT22;6681;53.254;10.398;2023-12-28T04:40:54;8.20;99.90
13231;DHT22;6681;53.254;10.398;2023-12-28T04:43:20;7.90;99.90
13231;DHT22;6681;53.254;10.398;2023-12-28T04:45:45;7.90;99.90
13231;DHT22;6681;53.254;10.398;2023-12-28T04:48:11;7.90;99.90
13231;DHT22;6681;53.254;10.398;2023-12-28T04:50:37;7.90;99.90
13231;DHT22;6681;53.254;10.398;2023-12-28T04:53:03;7.90;99.90
13231;DHT22;6681;53.254;10.398;2023-12-28T04:55:28;8.10;99.90
13231;DHT22;6681;53.254;10.398;2023-12-28T04:57:54;7.90;99.90
13231;DHT22;6681;53.254;10.398;2023-12-28T05:00:20;7.90;99.90
13231;DHT22;6681;53.254;10.398;2023-12-28T05:02:45;8.20;99.90
13231;DHT22;6681;53.254;10.398;2023-12-28T05:05:14;7.90;99.90
13231;DHT22;6681;53.254;10.398;2023-12-28T05:07:39;7.90;99.90
13231;DHT22;6681;53.254;10.398;2023-12-28T05:10:05;7.90;99.90
13231;DHT22;6681;53.254;10.398;2023-12-28T05:12:31;7.90;99.90
13231;DHT22;6681;53.254;10.398;2023-12-28T05:14:56;7.90;99.90
13231;DHT22;6681;53.254;10.398;2023-12-28T05:17:22;8.00;99.90
13231;DHT22;6681;53.254;10.398;2023-12-28T05:19:48;8.00;99.90
13231;DHT22;6681;53.254;10.398;2023-12-28T05:22:13;8.20;99.90
13231;DHT22;6681;53.254;10.398;2023-12-28T05:24:39;8.00;99.90
13231;DHT22;6681;53.254;10.398;2023-12-28T05:27:04;8.00;99.90
13231;DHT22;6681;53.254;10.398;2023-12-28T05:29:30;8.00;99.90
13231;DHT22;6681;53.254;10.398;2023-12-28T05:31:56;8.30;99.90
13231;DHT22;6681;53.254;10.398;2023-12-28T05:34:21;8.00;99.90
13231;DHT22;6681;53.254;10.398;2023-12-28T05:36:47;8.30;99.90
13231;DHT22;6681;53.254;10.398;2023-12-28T05:39:12;8.00;99.90
13231;DHT22;6681;53.254;10.398;2023-12-28T05:41:41;8.00;99.90
13231;DHT22;6681;53.254;10.398;2023-12-28T05:44:06;8.00;99.90
13231;DHT22;6681;53.254;10.398;2023-12-28T05:46:32;8.00;99.90
13231;DHT22;6681;53.254;10.398;2023-12-28T05:49:01;8.00;99.90
13231;DHT22;6681;53.254;10.398;2023-12-28T05:51:26;8.10;99.90
13231;DHT22;6681;53.254;10.398;2023-12-28T05:53:52;8.40;99.90
13231;DHT22;6681;53.254;10.398;2023-12-28T05:56:17;8.10;99.90
13231;DHT22;6681;53.254;10.398;2023-12-28T05:58:43;8.20;99.90
13231;DHT22;6681;53.254;10.398;2023-12-28T06:01:09;8.30;99.90
13231;DHT22;6681;53.254;10.398;2023-12-28T06:03:34;8.20;99.90
13231;DHT22;6681;53.254;10.398;2023-12-28T06:06:00;8.20;99.90
13231;DHT22;6681;53.254;10.398;2023-12-28T06:08:25;8.20;99.90
13231;DHT22;6681;53.254;10.398;2023-12-28T06:10:51;8.30;99.90
13231;DHT22;6681;53.254;10.398;2023-12-28T06:13:17;8.30;99.90
13231;DHT22;6681;53.254;10.398;2023-12-28T06:15:42;8.30;99.90
13231;DHT22;6681;53.254;10.398;2023-12-28T06:18:09;8.30;99.90
13231;DHT22;6681;53.254;10.398;2023-12-28T06:20:34;8.30;99.90
13231;DHT22;6681;53.254;10.398;2023-12-28T06:23:01;8.50;99.90
13231;DHT22;6681;53.254;10.398;2023-12-28T06:25:27;8.40;99.90
13231;DHT22;6681;53.254;10.398;2023-12-28T06:27:52;8.30;99.90
13231;DHT22;6681;53.254;10.398;2023-12-28T06:30:18;8.40;99.90
13231;DHT22;6681;53.254;10.398;2023-12-28T06:32:43;8.40;99.90
13231;DHT22;6681;53.254;10.398;2023-12-28T06:35:09;8.80;99.90
13231;DHT22;6681;53.254;10.398;2023-12-28T06:37:35;8.50;99.90
13231;DHT22;6681;53.254;10.398;2023-12-28T06:40:00;8.40;99.90
13231;DHT22;6681;53.254;10.398;2023-12-28T06:42:26;8.40;99.90
13231;DHT22;6681;53.254;10.398;2023-12-28T06:44:51;10.80;99.90
13231;DHT22;6681;53.254;10.398;2023-12-28T06:47:18;8.50;99.90
13231;DHT22;6681;53.254;10.398;2023-12-28T06:49:46;8.40;99.90
13231;DHT22;6681;53.254;10.398;2023-12-28T06:52:11;8.40;99.90
13231;DHT22;6681;53.254;10.398;2023-12-28T06:54:37;8.40;99.90
13231;DHT22;6681;53.254;10.398;2023-12-28T06:57:03;8.50;99.90
13231;DHT22;6681;53.254;10.398;2023-12-28T06:59:28;8.50;99.90
13231;DHT22;6681;53.254;10.398;2023-12-28T07:01:54;9.10;99.90
13231;DHT22;6681;53.254;10.398;2023-12-28T07:04:20;10.40;99.90
13231;DHT22;6681;53.254;10.398;2023-12-28T07:06:46;8.50;99.90
13231;DHT22;6681;53.254;10.398;2023-12-28T07:09:12;8.50;99.90
13231;DHT22;6681;53.254;10.398;2023-12-28T07:11:37;8.50;99.90
13231;DHT22;6681;53.254;10.398;2023-12-28T07:14:03;8.50;99.90
13231;DHT22;6681;53.254;10.398;2023-12-28T07:16:29;8.80;99.90
13231;DHT22;6681;53.254;10.398;2023-12-28T07:18:55;8.60;99.90
13231;DHT22;6681;53.254;10.398;2023-12-28T07:21:20;8.60;99.90
13231;DHT22;6681;53.254;10.398;2023-12-28T07:23:46;8.80;99.90
13231;DHT22;6681;53.254;10.398;2023-12-28T07:26:15;8.70;99.90
13231;DHT22;6681;53.254;10.398;2023-12-28T07:28:40;8.70;99.90
13231;DHT22;6681;53.254;10.398;2023-12-28T07:31:08;8.80;99.90
13231;DHT22;6681;53.254;10.398;2023-12-28T07:33:34;9.10;99.90
13231;DHT22;6681;53.254;10.398;2023-12-28T07:35:59;8.80;99.90
13231;DHT22;6681;53.254;10.398;2023-12-28T07:38:28;9.30;99.90
13231;DHT22;6681;53.254;10.398;2023-12-28T07:40:53;8.90;99.90
13231;DHT22;6681;53.254;10.398;2023-12-28T07:43:19;8.90;99.90
13231;DHT22;6681;53.254;10.398;2023-12-28T07:45:44;8.90;99.90
13231;DHT22;6681;53.254;10.398;2023-12-28T07:48:10;8.80;99.90
13231;DHT22;6681;53.254;10.398;2023-12-28T07:50:36;8.90;99.90
13231;DHT22;6681;53.254;10.398;2023-12-28T07:53:01;8.90;99.90
13231;DHT22;6681;53.254;10.398;2023-12-28T07:55:27;8.90;99.90
13231;DHT22;6681;53.254;10.398;2023-12-28T07:57:52;8.80;99.90
13231;DHT22;6681;53.254;10.398;2023-12-28T08:00:18;8.80;99.90
13231;DHT22;6681;53.254;10.398;2023-12-28T08:02:47;8.80;99.90
13231;DHT22;6681;53.254;10.398;2023-12-28T08:05:13;8.90;99.90
13231;DHT22;6681;53.254;10.398;2023-12-28T08:07:39;8.90;99.90
13231;DHT22;6681;53.254;10.398;2023-12-28T08:10:05;8.90;99.90
13231;DHT22;6681;53.254;10.398;2023-12-28T08:12:31;8.90;99.90
13231;DHT22;6681;53.254;10.398;2023-12-28T08:14:56;8.90;99.90
13231;DHT22;6681;53.254;10.398;2023-12-28T08:17:22;8.90;99.90
13231;DHT22;6681;53.254;10.398;2023-12-28T08:19:48;9.00;99.90
13231;DHT22;6681;53.254;10.398;2023-12-28T08:22:13;9.00;99.90
13231;DHT22;6681;53.254;10.398;2023-12-28T08:24:39;9.20;99.90
13231;DHT22;6681;53.254;10.398;2023-12-28T08:27:04;9.40;99.90
13231;DHT22;6681;53.254;10.398;2023-12-28T08:29:30;9.00;99.90
13231;DHT22;6681;53.254;10.398;2023-12-28T08:31:56;9.30;99.90
13231;DHT22;6681;53.254;10.398;2023-12-28T08:34:22;9.00;99.90
13231;DHT22;6681;53.254;10.398;2023-12-28T08:36:48;9.10;99.90
13231;DHT22;6681;53.254;10.398;2023-12-28T08:39:17;9.10;99.90
13231;DHT22;6681;53.254;10.398;2023-12-28T08:41:43;9.20;99.90
13231;DHT22;6681;53.254;10.398;2023-12-28T08:44:08;9.30;99.90
13231;DHT22;6681;53.254;10.398;2023-12-28T08:46:34;9.30;99.90
13231;DHT22;6681;53.254;10.398;2023-12-28T08:49:00;9.60;99.90
13231;DHT22;6681;53.254;10.398;2023-12-28T08:51:25;9.30;99.90
13231;DHT22;6681;53.254;10.398;2023-12-28T08:53:51;9.40;99.90
13231;DHT22;6681;53.254;10.398;2023-12-28T08:56:20;9.60;99.90
13231;DHT22;6681;53.254;10.398;2023-12-28T08:58:49;9.50;99.90
13231;DHT22;6681;53.254;10.398;2023-12-28T09:01:23;10.20;99.90
13231;DHT22;6681;53.254;10.398;2023-12-28T09:03:53;9.50;99.90
13231;DHT22;6681;53.254;10.398;2023-12-28T09:06:20;9.50;99.90
13231;DHT22;6681;53.254;10.398;2023-12-28T09:08:48;9.40;99.90
13231;DHT22;6681;53.254;10.398;2023-12-28T09:11:14;9.40;99.90
13231;DHT22;6681;53.254;10.398;2023-12-28T09:13:40;9.40;99.90
13231;DHT22;6681;53.254;10.398;2023-12-28T09:16:08;9.50;99.90
13231;DHT22;6681;53.254;10.398;2023-12-28T09:18:33;9.90;99.90
13231;DHT22;6681;53.254;10.398;2023-12-28T09:20:59;9.60;99.90
13231;DHT22;6681;53.254;10.398;2023-12-28T09:23:24;9.90;99.90
13231;DHT22;6681;53.254;10.398;2023-12-28T09:25:50;9.60;99.90
13231;DHT22;6681;53.254;10.398;2023-12-28T09:28:16;9.90;99.90
13231;DHT22;6681;53.254;10.398;2023-12-28T09:30:41;9.70;99.90
13231;DHT22;6681;53.254;10.398;2023-12-28T09:33:07;9.70;99.90
13231;DHT22;6681;53.254;10.398;2023-12-28T09:35:33;9.70;99.90
13231;DHT22;6681;53.254;10.398;2023-12-28T09:37:58;9.80;99.90
13231;DHT22;6681;53.254;10.398;2023-12-28T09:40:27;9.90;99.90
13231;DHT22;6681;53.254;10.398;2023-12-28T09:43:20;9.90;99.90
13231;DHT22;6681;53.254;10.398;2023-12-28T09:45:49;9.90;99.90
13231;DHT22;6681;53.254;10.398;2023-12-28T09:48:20;9.90;99.90
13231;DHT22;6681;53.254;10.398;2023-12-28T09:50:49;9.90;99.90
13231;DHT22;6681;53.254;10.398;2023-12-28T09:53:15;9.90;99.90
13231;DHT22;6681;53.254;10.398;2023-12-28T09:55:40;10.00;99.90
13231;DHT22;6681;53.254;10.398;2023-12-28T09:58:06;10.20;99.90
13231;DHT22;6681;53.254;10.398;2023-12-28T10:00:32;10.10;99.90
13231;DHT22;6681;53.254;10.398;2023-12-28T10:02:58;10.10;99.90
13231;DHT22;6681;53.254;10.398;2023-12-28T10:05:23;10.20;99.90
13231;DHT22;6681;53.254;10.398;2023-12-28T10:07:50;10.10;99.90
13231;DHT22;6681;53.254;10.398;2023-12-28T10:10:16;10.10;99.90
13231;DHT22;6681;53.254;10.398;2023-12-28T10:12:42;10.10;99.90
13231;DHT22;6681;53.254;10.398;2023-12-28T10:15:09;10.20;99.90
13231;DHT22;6681;53.254;10.398;2023-12-28T10:17:35;10.20;99.90
13231;DHT22;6681;53.254;10.398;2023-12-28T10:20:03;10.20;99.90
13231;DHT22;6681;53.254;10.398;2023-12-28T10:22:30;10.30;99.90
13231;DHT22;6681;53.254;10.398;2023-12-28T10:24:56;10.40;99.90
13231;DHT22;6681;53.254;10.398;2023-12-28T10:27:21;10.40;99.90
13231;DHT22;6681;53.254;10.398;2023-12-28T10:29:47;10.40;99.90
13231;DHT22;6681;53.254;10.398;2023-12-28T10:32:13;10.40;99.90
13231;DHT22;6681;53.254;10.398;2023-12-28T10:34:39;10.70;99.90
13231;DHT22;6681;53.254;10.398;2023-12-28T10:37:05;10.40;99.90
13231;DHT22;6681;53.254;10.398;2023-12-28T10:39:32;10.50;99.90
13231;DHT22;6681;53.254;10.398;2023-12-28T10:42:00;10.50;99.90
13231;DHT22;6681;53.254;10.398;2023-12-28T10:44:32;10.50;99.90
13231;DHT22;6681;53.254;10.398;2023-12-28T10:47:02;10.40;99.90
13231;DHT22;6681;53.254;10.398;2023-12-28T10:49:30;10.40;99.90
13231;DHT22;6681;53.254;10.398;2023-12-28T10:51:59;10.40;99.90
13231;DHT22;6681;53.254;10.398;2023-12-28T10:54:41;10.40;99.90
13231;DHT22;6681;53.254;10.398;2023-12-28T10:57:30;10.40;99.90
13231;DHT22;6681;53.254;10.398;2023-12-28T11:02:41;10.40;99.90
13231;DHT22;6681;53.254;10.398;2023-12-28T11:05:13;10.30;99.90
13231;DHT22;6681;53.254;10.398;2023-12-28T11:07:41;10.30;99.90
13231;DHT22;6681;53.254;10.398;2023-12-28T11:10:08;10.40;99.90
13231;DHT22;6681;53.254;10.398;2023-12-28T11:12:36;10.30;99.90
13231;DHT22;6681;53.254;10.398;2023-12-28T11:15:03;10.30;99.90
13231;DHT22;6681;53.254;10.398;2023-12-28T11:17:30;10.30;99.90
13231;DHT22;6681;53.254;10.398;2023-12-28T11:19:56;10.30;99.90
13231;DHT22;6681;53.254;10.398;2023-12-28T11:22:23;10.30;99.90
13231;DHT22;6681;53.254;10.398;2023-12-28T11:24:52;10.30;99.90
13231;DHT22;6681;53.254;10.398;2023-12-28T11:27:19;10.30;99.90
13231;DHT22;6681;53.254;10.398;2023-12-28T11:29:44;10.30;99.90
13231;DHT22;6681;53.254;10.398;2023-12-28T11:32:13;10.20;99.90
13231;DHT22;6681;53.254;10.398;2023-12-28T11:34:39;10.20;99.90
13231;DHT22;6681;53.254;10.398;2023-12-28T11:37:12;10.30;99.90
13231;DHT22;6681;53.254;10.398;2023-12-28T11:39:41;10.30;99.90
13231;DHT22;6681;53.254;10.398;2023-12-28T11:42:09;10.30;99.90
13231;DHT22;6681;53.254;10.398;2023-12-28T11:47:15;10.30;99.90
13231;DHT22;6681;53.254;10.398;2023-12-28T11:49:41;10.70;99.90
13231;DHT22;6681;53.254;10.398;2023-12-28T11:52:09;10.40;99.90
13231;DHT22;6681;53.254;10.398;2023-12-28T11:54:36;10.40;99.90
13231;DHT22;6681;53.254;10.398;2023-12-28T11:57:02;10.40;99.90
13231;DHT22;6681;53.254;10.398;2023-12-28T11:59:27;10.40;99.90
13231;DHT22;6681;53.254;10.398;2023-12-28T12:01:53;10.40;99.90
13231;DHT22;6681;53.254;10.398;2023-12-28T12:04:20;10.40;99.90
13231;DHT22;6681;53.254;10.398;2023-12-28T12:06:46;10.40;99.90
13231;DHT22;6681;53.254;10.398;2023-12-28T12:09:12;10.40;99.90
13231;DHT22;6681;53.254;10.398;2023-12-28T12:11:38;10.70;99.90
13231;DHT22;6681;53.254;10.398;2023-12-28T12:14:11;10.40;99.90
13231;DHT22;6681;53.254;10.398;2023-12-28T12:16:37;10.40;99.90
13231;DHT22;6681;53.254;10.398;2023-12-28T12:19:06;10.40;99.90
13231;DHT22;6681;53.254;10.398;2023-12-28T12:21:34;10.80;99.90
13231;DHT22;6681;53.254;10.398;2023-12-28T12:23:59;10.40;99.90
13231;DHT22;6681;53.254;10.398;2023-12-28T12:26:26;10.70;99.90
13231;DHT22;6681;53.254;10.398;2023-12-28T12:28:52;10.40;99.90
13231;DHT22;6681;53.254;10.398;2023-12-28T12:31:18;10.40;99.90
13231;DHT22;6681;53.254;10.398;2023-12-28T12:33:44;10.40;99.90
13231;DHT22;6681;53.254;10.398;2023-12-28T12:36:10;10.40;99.90
13231;DHT22;6681;53.254;10.398;2023-12-28T12:38:36;10.40;99.90
13231;DHT22;6681;53.254;10.398;2023-12-28T12:41:02;10.40;99.90
13231;DHT22;6681;53.254;10.398;2023-12-28T12:43:28;10.40;99.90
13231;DHT22;6681;53.254;10.398;2023-12-28T12:45:54;10.40;99.90
13231;DHT22;6681;53.254;10.398;2023-12-28T12:48:20;10.40;99.90
13231;DHT22;6681;53.254;10.398;2023-12-28T12:50:45;10.40;99.90
13231;DHT22;6681;53.254;10.398;2023-12-28T12:53:11;10.40;99.90
13231;DHT22;6681;53.254;10.398;2023-12-28T12:55:38;10.60;99.90
13231;DHT22;6681;53.254;10.398;2023-12-28T12:58:11;10.40;99.90
13231;DHT22;6681;53.254;10.398;2023-12-28T13:00:38;10.40;99.90
13231;DHT22;6681;53.254;10.398;2023-12-28T13:03:08;10.40;99.90
13231;DHT22;6681;53.254;10.398;2023-12-28T13:05:38;10.40;99.90
13231;DHT22;6681;53.254;10.398;2023-12-28T13:08:04;10.30;99.90
13231;DHT22;6681;53.254;10.398;2023-12-28T13:10:31;10.30;99.90
13231;DHT22;6681;53.254;10.398;2023-12-28T13:12:57;10.30;99.90
13231;DHT22;6681;53.254;10.398;2023-12-28T13:15:22;10.30;99.90
13231;DHT22;6681;53.254;10.398;2023-12-28T13:17:48;10.30;99.90
13231;DHT22;6681;53.254;10.398;2023-12-28T13:20:13;10.30;99.90
13231;DHT22;6681;53.254;10.398;2023-12-28T13:22:39;10.30;99.90
13231;DHT22;6681;53.254;10.398;2023-12-28T13:25:05;10.30;99.90
13231;DHT22;6681;53.254;10.398;2023-12-28T13:27:31;10.30;99.90
13231;DHT22;6681;53.254;10.398;2023-12-28T13:29:57;10.30;99.90
13231;DHT22;6681;53.254;10.398;2023-12-28T13:32:23;10.30;99.90
13231;DHT22;6681;53.254;10.398;2023-12-28T13:34:49;10.30;99.90
13231;DHT22;6681;53.254;10.398;2023-12-28T13:37:18;10.30;99.90
13231;DHT22;6681;53.254;10.398;2023-12-28T13:39:44;10.30;99.90
13231;DHT22;6681;53.254;10.398;2023-12-28T13:42:10;10.80;99.90
13231;DHT22;6681;53.254;10.398;2023-12-28T13:44:35;10.30;99.90
13231;DHT22;6681;53.254;10.398;2023-12-28T13:47:04;10.30;99.90
13231;DHT22;6681;53.254;10.398;2023-12-28T13:49:33;10.30;99.90
13231;DHT22;6681;53.254;10.398;2023-12-28T13:51:58;10.30;99.90
13231;DHT22;6681;53.254;10.398;2023-12-28T13:54:24;10.30;99.90
13231;DHT22;6681;53.254;10.398;2023-12-28T13:56:50;10.60;99.90
13231;DHT22;6681;53.254;10.398;2023-12-28T13:59:17;10.30;99.90
13231;DHT22;6681;53.254;10.398;2023-12-28T14:01:42;10.20;99.90
13231;DHT22;6681;53.254;10.398;2023-12-28T14:04:08;10.20;99.90
13231;DHT22;6681;53.254;10.398;2023-12-28T14:06:34;10.20;99.90
13231;DHT22;6681;53.254;10.398;2023-12-28T14:08:59;10.20;99.90
13231;DHT22;6681;53.254;10.398;2023-12-28T14:11:25;10.20;99.90
13231;DHT22;6681;53.254;10.398;2023-12-28T14:13:51;10.20;99.90
13231;DHT22;6681;53.254;10.398;2023-12-28T14:16:16;10.20;99.90
13231;DHT22;6681;53.254;10.398;2023-12-28T14:18:42;10.20;99.90
13231;DHT22;6681;53.254;10.398;2023-12-28T14:21:12;10.10;99.90
13231;DHT22;6681;53.254;10.398;2023-12-28T14:23:40;10.10;99.90
13231;DHT22;6681;53.254;10.398;2023-12-28T14:26:12;10.10;99.90
13231;DHT22;6681;53.254;10.398;2023-12-28T14:28:42;10.10;99.90
13231;DHT22;6681;53.254;10.398;2023-12-28T14:31:11;10.10;99.90
13231;DHT22;6681;53.254;10.398;2023-12-28T14:33:38;10.10;99.90
13231;DHT22;6681;53.254;10.398;2023-12-28T14:36:14;10.10;99.90
13231;DHT22;6681;53.254;10.398;2023-12-28T14:38:41;10.10;99.90
13231;DHT22;6681;53.254;10.398;2023-12-28T14:41:06;10.10;99.90
13231;DHT22;6681;53.254;10.398;2023-12-28T14:43:32;10.10;99.90
13231;DHT22;6681;53.254;10.398;2023-12-28T14:45:57;10.10;99.90
13231;DHT22;6681;53.254;10.398;2023-12-28T14:48:23;10.10;99.90
13231;DHT22;6681;53.254;10.398;2023-12-28T14:50:49;10.20;99.90
13231;DHT22;6681;53.254;10.398;2023-12-28T14:53:15;10.10;99.90
13231;DHT22;6681;53.254;10.398;2023-12-28T14:55:41;10.10;99.90
13231;DHT22;6681;53.254;10.398;2023-12-28T14:58:07;10.10;99.90
13231;DHT22;6681;53.254;10.398;2023-12-28T15:00:32;10.10;99.90
13231;DHT22;6681;53.254;10.398;2023-12-28T15:02:58;10.10;99.90
13231;DHT22;6681;53.254;10.398;2023-12-28T15:05:24;10.00;99.90
13231;DHT22;6681;53.254;10.398;2023-12-28T15:07:49;10.00;99.90
13231;DHT22;6681;53.254;10.398;2023-12-28T15:10:15;10.00;99.90
13231;DHT22;6681;53.254;10.398;2023-12-28T15:12:41;10.00;99.90
13231;DHT22;6681;53.254;10.398;2023-12-28T15:15:08;10.00;99.90
13231;DHT22;6681;53.254;10.398;2023-12-28T15:17:35;10.00;99.90
13231;DHT22;6681;53.254;10.398;2023-12-28T15:20:01;10.00;99.90
13231;DHT22;6681;53.254;10.398;2023-12-28T15:22:27;10.00;99.90
13231;DHT22;6681;53.254;10.398;2023-12-28T15:24:53;10.00;99.90
13231;DHT22;6681;53.254;10.398;2023-12-28T15:27:18;10.00;99.90
13231;DHT22;6681;53.254;10.398;2023-12-28T15:29:44;10.00;99.90
13231;DHT22;6681;53.254;10.398;2023-12-28T15:32:10;10.00;99.90
13231;DHT22;6681;53.254;10.398;2023-12-28T15:34:35;10.00;99.90
13231;DHT22;6681;53.254;10.398;2023-12-28T15:37:01;10.00;99.90
13231;DHT22;6681;53.254;10.398;2023-12-28T15:39:26;10.00;99.90